sensor_id;sensor_type;location;lat;lon;timestamp;temperature;humidity
67557;DHT22;54387;53.526;49.300;2023-05-20T00:00:45;13.60;47.80
67557;DHT22;54387;53.526;49.300;2023-05-20T00:03:16;13.60;48.00
67557;DHT22;54387;53.526;49.300;2023-05-20T00:05:43;13.50;48.00
67557;DHT22;54387;53.526;49.300;2023-05-20T00:08:09;13.50;48.20
67557;DHT22;54387;53.526;49.300;2023-05-20T00:10:35;13.50;48.40
67557;DHT22;54387;53.526;49.300;2023-05-20T00:13:02;13.40;48.70
67557;DHT22;54387;53.526;49.300;2023-05-20T00:15:28;13.40;48.80
67557;DHT22;54387;53.526;49.300;2023-05-20T00:17:55;13.40;48.80
67557;DHT22;54387;53.526;49.300;2023-05-20T00:20:21;13.40;48.90
67557;DHT22;54387;53.526;49.300;2023-05-20T00:22:48;13.30;49.00
67557;DHT22;54387;53.526;49.300;2023-05-20T00:25:14;13.30;49.20
67557;DHT22;54387;53.526;49.300;2023-05-20T00:27:40;13.30;49.30
67557;DHT22;54387;53.526;49.300;2023-05-20T00:30:07;13.20;49.50
67557;DHT22;54387;53.526;49.300;2023-05-20T00:32:33;13.20;49.70
67557;DHT22;54387;53.526;49.300;2023-05-20T00:35:02;13.20;49.80
67557;DHT22;54387;53.526;49.300;2023-05-20T00:37:29;13.20;50.00
67557;DHT22;54387;53.526;49.300;2023-05-20T00:39:55;13.10;50.00
67557;DHT22;54387;53.526;49.300;2023-05-20T00:42:22;13.10;50.10
67557;DHT22;54387;53.526;49.300;2023-05-20T00:44:49;13.10;50.40
67557;DHT22;54387;53.526;49.300;2023-05-20T00:47:17;13.00;50.60
67557;DHT22;54387;53.526;49.300;2023-05-20T00:49:44;13.00;50.70
67557;DHT22;54387;53.526;49.300;2023-05-20T00:52:11;12.90;50.70
67557;DHT22;54387;53.526;49.300;2023-05-20T00:54:39;12.90;50.80
67557;DHT22;54387;53.526;49.300;2023-05-20T00:57:06;12.90;51.00
67557;DHT22;54387;53.526;49.300;2023-05-20T00:59:36;12.80;51.20
67557;DHT22;54387;53.526;49.300;2023-05-20T01:02:04;12.80;51.40
67557;DHT22;54387;53.526;49.300;2023-05-20T01:04:31;12.70;51.50
67557;DHT22;54387;53.526;49.300;2023-05-20T01:07:00;12.70;51.70
67557;DHT22;54387;53.526;49.300;2023-05-20T01:09:27;12.70;52.00
67557;DHT22;54387;53.526;49.300;2023-05-20T01:12:12;12.60;52.20
67557;DHT22;54387;53.526;49.300;2023-05-20T01:14:48;12.60;52.40
67557;DHT22;54387;53.526;49.300;2023-05-20T01:17:15;12.60;52.60
67557;DHT22;54387;53.526;49.300;2023-05-20T01:19:46;12.50;52.60
67557;DHT22;54387;53.526;49.300;2023-05-20T01:22:14;12.50;52.80
67557;DHT22;54387;53.526;49.300;2023-05-20T01:24:42;12.50;52.90
67557;DHT22;54387;53.526;49.300;2023-05-20T01:27:11;12.50;53.00
67557;DHT22;54387;53.526;49.300;2023-05-20T01:29:39;12.50;53.10
67557;DHT22;54387;53.526;49.300;2023-05-20T01:32:11;12.40;53.20
67557;DHT22;54387;53.526;49.300;2023-05-20T01:34:40;12.50;53.40
67557;DHT22;54387;53.526;49.300;2023-05-20T01:37:07;12.50;53.60
67557;DHT22;54387;53.526;49.300;2023-05-20T01:39:35;12.50;53.70
67557;DHT22;54387;53.526;49.300;2023-05-20T01:42:04;12.50;55.00
67557;DHT22;54387;53.526;49.300;2023-05-20T01:44:31;12.50;54.00
67557;DHT22;54387;53.526;49.300;2023-05-20T01:46:58;12.50;54.00
67557;DHT22;54387;53.526;49.300;2023-05-20T01:49:26;12.60;54.00
67557;DHT22;54387;53.526;49.300;2023-05-20T01:51:52;12.60;54.10
67557;DHT22;54387;53.526;49.300;2023-05-20T01:54:19;12.60;54.00
67557;DHT22;54387;53.526;49.300;2023-05-20T01:56:45;12.60;54.00
67557;DHT22;54387;53.526;49.300;2023-05-20T01:59:12;12.60;54.00
67557;DHT22;54387;53.526;49.300;2023-05-20T02:01:38;12.60;54.10
67557;DHT22;54387;53.526;49.300;2023-05-20T02:04:04;12.60;54.30
67557;DHT22;54387;53.526;49.300;2023-05-20T02:06:30;12.60;54.40
67557;DHT22;54387;53.526;49.300;2023-05-20T02:08:56;12.70;54.50
67557;DHT22;54387;53.526;49.300;2023-05-20T02:11:23;12.70;54.50
67557;DHT22;54387;53.526;49.300;2023-05-20T02:13:49;12.70;54.50
67557;DHT22;54387;53.526;49.300;2023-05-20T02:16:16;12.70;54.70
67557;DHT22;54387;53.526;49.300;2023-05-20T02:18:42;12.80;54.70
67557;DHT22;54387;53.526;49.300;2023-05-20T02:21:09;12.80;54.70
67557;DHT22;54387;53.526;49.300;2023-05-20T02:23:35;12.80;54.60
67557;DHT22;54387;53.526;49.300;2023-05-20T02:26:02;12.90;54.80
67557;DHT22;54387;53.526;49.300;2023-05-20T02:28:28;12.90;54.90
67557;DHT22;54387;53.526;49.300;2023-05-20T02:30:54;13.00;54.90
67557;DHT22;54387;53.526;49.300;2023-05-20T02:33:20;13.00;54.70
67557;DHT22;54387;53.526;49.300;2023-05-20T02:35:46;13.10;54.90
67557;DHT22;54387;53.526;49.300;2023-05-20T02:38:13;13.30;54.80
67557;DHT22;54387;53.526;49.300;2023-05-20T02:40:42;13.30;54.50
67557;DHT22;54387;53.526;49.300;2023-05-20T02:43:08;13.40;54.40
67557;DHT22;54387;53.526;49.300;2023-05-20T02:45:34;13.50;54.40
67557;DHT22;54387;53.526;49.300;2023-05-20T02:48:01;13.60;54.30
67557;DHT22;54387;53.526;49.300;2023-05-20T02:50:27;13.60;54.30
67557;DHT22;54387;53.526;49.300;2023-05-20T02:52:53;13.70;54.20
67557;DHT22;54387;53.526;49.300;2023-05-20T02:55:19;13.70;54.00
67557;DHT22;54387;53.526;49.300;2023-05-20T02:57:46;13.80;53.90
67557;DHT22;54387;53.526;49.300;2023-05-20T03:00:12;13.90;54.00
67557;DHT22;54387;53.526;49.300;2023-05-20T03:02:39;14.00;53.90
67557;DHT22;54387;53.526;49.300;2023-05-20T03:05:05;14.00;53.70
67557;DHT22;54387;53.526;49.300;2023-05-20T03:07:34;14.10;53.70
67557;DHT22;54387;53.526;49.300;2023-05-20T03:10:01;14.20;53.70
67557;DHT22;54387;53.526;49.300;2023-05-20T03:12:29;14.30;53.50
67557;DHT22;54387;53.526;49.300;2023-05-20T03:14:56;14.40;53.40
67557;DHT22;54387;53.526;49.300;2023-05-20T03:17:23;14.50;53.20
67557;DHT22;54387;53.526;49.300;2023-05-20T03:19:49;14.70;52.90
67557;DHT22;54387;53.526;49.300;2023-05-20T03:22:16;14.80;52.50
67557;DHT22;54387;53.526;49.300;2023-05-20T03:24:42;14.90;52.10
67557;DHT22;54387;53.526;49.300;2023-05-20T03:27:09;15.00;51.60
67557;DHT22;54387;53.526;49.300;2023-05-20T03:29:35;15.00;50.90
67557;DHT22;54387;53.526;49.300;2023-05-20T03:32:01;15.10;50.90
67557;DHT22;54387;53.526;49.300;2023-05-20T03:34:27;15.20;50.70
67557;DHT22;54387;53.526;49.300;2023-05-20T03:36:55;15.30;50.50
67557;DHT22;54387;53.526;49.300;2023-05-20T03:39:22;15.40;50.30
67557;DHT22;54387;53.526;49.300;2023-05-20T03:41:48;15.40;50.10
67557;DHT22;54387;53.526;49.300;2023-05-20T03:44:14;15.60;49.80
67557;DHT22;54387;53.526;49.300;2023-05-20T03:46:40;15.70;49.50
67557;DHT22;54387;53.526;49.300;2023-05-20T03:49:06;15.70;49.30
67557;DHT22;54387;53.526;49.300;2023-05-20T03:51:32;15.80;48.90
67557;DHT22;54387;53.526;49.300;2023-05-20T03:53:59;15.90;48.60
67557;DHT22;54387;53.526;49.300;2023-05-20T03:56:25;15.90;48.70
67557;DHT22;54387;53.526;49.300;2023-05-20T03:58:52;16.00;48.40
67557;DHT22;54387;53.526;49.300;2023-05-20T04:01:20;16.00;48.30
67557;DHT22;54387;53.526;49.300;2023-05-20T04:03:50;16.10;47.90
67557;DHT22;54387;53.526;49.300;2023-05-20T04:06:16;16.00;47.30
67557;DHT22;54387;53.526;49.300;2023-05-20T04:08:42;16.00;47.50
67557;DHT22;54387;53.526;49.300;2023-05-20T04:11:09;15.90;47.50
67557;DHT22;54387;53.526;49.300;2023-05-20T04:13:35;16.00;47.30
67557;DHT22;54387;53.526;49.300;2023-05-20T04:16:01;16.00;47.10
67557;DHT22;54387;53.526;49.300;2023-05-20T04:18:30;16.10;47.00
67557;DHT22;54387;53.526;49.300;2023-05-20T04:20:56;16.10;46.90
67557;DHT22;54387;53.526;49.300;2023-05-20T04:23:24;16.20;46.90
67557;DHT22;54387;53.526;49.300;2023-05-20T04:25:50;16.30;46.60
67557;DHT22;54387;53.526;49.300;2023-05-20T04:28:16;16.30;46.10
67557;DHT22;54387;53.526;49.300;2023-05-20T04:30:42;16.40;46.00
67557;DHT22;54387;53.526;49.300;2023-05-20T04:33:10;16.40;45.90
67557;DHT22;54387;53.526;49.300;2023-05-20T04:35:36;16.50;46.00
67557;DHT22;54387;53.526;49.300;2023-05-20T04:38:06;16.60;45.90
67557;DHT22;54387;53.526;49.300;2023-05-20T04:40:33;16.60;45.80
67557;DHT22;54387;53.526;49.300;2023-05-20T04:42:59;16.60;45.50
67557;DHT22;54387;53.526;49.300;2023-05-20T04:45:25;16.50;45.50
67557;DHT22;54387;53.526;49.300;2023-05-20T04:47:56;16.50;45.50
67557;DHT22;54387;53.526;49.300;2023-05-20T04:50:22;16.50;45.70
67557;DHT22;54387;53.526;49.300;2023-05-20T04:52:48;16.50;45.70
67557;DHT22;54387;53.526;49.300;2023-05-20T04:55:15;16.50;45.60
67557;DHT22;54387;53.526;49.300;2023-05-20T04:57:41;16.50;45.70
67557;DHT22;54387;53.526;49.300;2023-05-20T05:00:10;16.50;45.60
67557;DHT22;54387;53.526;49.300;2023-05-20T05:02:38;16.60;45.60
67557;DHT22;54387;53.526;49.300;2023-05-20T05:05:04;16.60;45.70
67557;DHT22;54387;53.526;49.300;2023-05-20T05:07:31;16.70;45.90
67557;DHT22;54387;53.526;49.300;2023-05-20T05:09:57;16.70;45.90
67557;DHT22;54387;53.526;49.300;2023-05-20T05:12:23;16.80;45.70
67557;DHT22;54387;53.526;49.300;2023-05-20T05:14:50;16.80;45.50
67557;DHT22;54387;53.526;49.300;2023-05-20T05:17:17;16.90;45.60
67557;DHT22;54387;53.526;49.300;2023-05-20T05:19:43;16.90;45.50
67557;DHT22;54387;53.526;49.300;2023-05-20T05:22:09;17.00;45.60
67557;DHT22;54387;53.526;49.300;2023-05-20T05:24:35;17.00;45.40
67557;DHT22;54387;53.526;49.300;2023-05-20T05:27:01;17.00;45.30
67557;DHT22;54387;53.526;49.300;2023-05-20T05:29:28;17.10;45.20
67557;DHT22;54387;53.526;49.300;2023-05-20T05:31:54;17.10;45.00
67557;DHT22;54387;53.526;49.300;2023-05-20T05:34:20;17.10;45.00
67557;DHT22;54387;53.526;49.300;2023-05-20T05:36:46;17.10;45.00
67557;DHT22;54387;53.526;49.300;2023-05-20T05:39:12;17.10;44.70
67557;DHT22;54387;53.526;49.300;2023-05-20T05:41:39;17.10;45.00
67557;DHT22;54387;53.526;49.300;2023-05-20T05:44:05;17.10;45.20
67557;DHT22;54387;53.526;49.300;2023-05-20T05:46:31;17.10;45.10
67557;DHT22;54387;53.526;49.300;2023-05-20T05:48:58;17.10;45.10
67557;DHT22;54387;53.526;49.300;2023-05-20T05:51:25;17.20;45.20
67557;DHT22;54387;53.526;49.300;2023-05-20T05:53:52;17.20;45.10
67557;DHT22;54387;53.526;49.300;2023-05-20T05:56:19;17.30;44.80
67557;DHT22;54387;53.526;49.300;2023-05-20T05:58:46;17.30;44.40
67557;DHT22;54387;53.526;49.300;2023-05-20T06:01:13;17.30;44.20
67557;DHT22;54387;53.526;49.300;2023-05-20T06:03:39;17.40;44.30
67557;DHT22;54387;53.526;49.300;2023-05-20T06:06:05;17.40;44.10
67557;DHT22;54387;53.526;49.300;2023-05-20T06:08:31;17.40;44.00
67557;DHT22;54387;53.526;49.300;2023-05-20T06:10:58;17.40;44.10
67557;DHT22;54387;53.526;49.300;2023-05-20T06:13:24;17.50;44.40
67557;DHT22;54387;53.526;49.300;2023-05-20T06:15:50;17.60;44.10
67557;DHT22;54387;53.526;49.300;2023-05-20T06:18:16;17.70;43.90
67557;DHT22;54387;53.526;49.300;2023-05-20T06:20:42;17.80;43.60
67557;DHT22;54387;53.526;49.300;2023-05-20T06:23:09;17.80;43.30
67557;DHT22;54387;53.526;49.300;2023-05-20T06:25:36;17.90;43.20
67557;DHT22;54387;53.526;49.300;2023-05-20T06:28:03;18.00;43.20
67557;DHT22;54387;53.526;49.300;2023-05-20T06:30:29;18.10;42.90
67557;DHT22;54387;53.526;49.300;2023-05-20T06:32:55;18.20;43.00
67557;DHT22;54387;53.526;49.300;2023-05-20T06:35:21;18.30;42.70
67557;DHT22;54387;53.526;49.300;2023-05-20T06:37:47;18.40;42.50
67557;DHT22;54387;53.526;49.300;2023-05-20T06:40:13;18.50;42.40
67557;DHT22;54387;53.526;49.300;2023-05-20T06:42:39;18.80;42.40
67557;DHT22;54387;53.526;49.300;2023-05-20T06:45:06;19.10;41.50
67557;DHT22;54387;53.526;49.300;2023-05-20T06:47:32;19.30;41.20
67557;DHT22;54387;53.526;49.300;2023-05-20T06:49:58;19.60;40.70
67557;DHT22;54387;53.526;49.300;2023-05-20T06:52:25;19.80;39.90
67557;DHT22;54387;53.526;49.300;2023-05-20T06:54:51;20.00;39.60
67557;DHT22;54387;53.526;49.300;2023-05-20T06:57:17;20.10;39.00
67557;DHT22;54387;53.526;49.300;2023-05-20T06:59:44;20.30;38.90
67557;DHT22;54387;53.526;49.300;2023-05-20T07:02:10;20.70;38.20
67557;DHT22;54387;53.526;49.300;2023-05-20T07:04:37;20.90;37.90
67557;DHT22;54387;53.526;49.300;2023-05-20T07:07:03;21.10;37.40
67557;DHT22;54387;53.526;49.300;2023-05-20T07:09:29;21.20;37.10
67557;DHT22;54387;53.526;49.300;2023-05-20T07:11:55;21.50;36.70
67557;DHT22;54387;53.526;49.300;2023-05-20T07:14:21;21.70;35.80
67557;DHT22;54387;53.526;49.300;2023-05-20T07:16:48;21.80;35.80
67557;DHT22;54387;53.526;49.300;2023-05-20T07:19:14;21.90;35.50
67557;DHT22;54387;53.526;49.300;2023-05-20T07:21:40;21.90;35.20
67557;DHT22;54387;53.526;49.300;2023-05-20T07:24:06;21.70;34.90
67557;DHT22;54387;53.526;49.300;2023-05-20T07:26:33;21.50;35.50
67557;DHT22;54387;53.526;49.300;2023-05-20T07:29:02;21.40;35.50
67557;DHT22;54387;53.526;49.300;2023-05-20T07:31:29;21.40;35.40
67557;DHT22;54387;53.526;49.300;2023-05-20T07:33:56;21.40;35.50
67557;DHT22;54387;53.526;49.300;2023-05-20T07:36:22;21.30;35.70
67557;DHT22;54387;53.526;49.300;2023-05-20T07:38:48;21.30;35.90
67557;DHT22;54387;53.526;49.300;2023-05-20T07:41:14;21.40;35.50
67557;DHT22;54387;53.526;49.300;2023-05-20T07:43:41;21.70;35.20
67557;DHT22;54387;53.526;49.300;2023-05-20T07:46:07;21.90;34.50
67557;DHT22;54387;53.526;49.300;2023-05-20T07:48:33;21.90;33.90
67557;DHT22;54387;53.526;49.300;2023-05-20T07:50:59;21.80;34.10
67557;DHT22;54387;53.526;49.300;2023-05-20T07:53:27;21.70;34.60
67557;DHT22;54387;53.526;49.300;2023-05-20T07:55:54;21.60;34.40
67557;DHT22;54387;53.526;49.300;2023-05-20T07:58:21;21.50;34.70
67557;DHT22;54387;53.526;49.300;2023-05-20T08:00:47;21.60;34.90
67557;DHT22;54387;53.526;49.300;2023-05-20T08:03:13;21.70;34.60
67557;DHT22;54387;53.526;49.300;2023-05-20T08:05:42;21.80;34.70
67557;DHT22;54387;53.526;49.300;2023-05-20T08:08:09;21.90;33.90
67557;DHT22;54387;53.526;49.300;2023-05-20T08:10:35;22.00;33.50
67557;DHT22;54387;53.526;49.300;2023-05-20T08:13:02;21.90;33.50
67557;DHT22;54387;53.526;49.300;2023-05-20T08:15:34;21.80;33.40
67557;DHT22;54387;53.526;49.300;2023-05-20T08:18:01;21.70;33.60
67557;DHT22;54387;53.526;49.300;2023-05-20T08:20:28;21.60;33.90
67557;DHT22;54387;53.526;49.300;2023-05-20T08:22:54;21.50;33.80
67557;DHT22;54387;53.526;49.300;2023-05-20T08:25:21;21.60;34.30
67557;DHT22;54387;53.526;49.300;2023-05-20T08:27:48;21.60;34.00
67557;DHT22;54387;53.526;49.300;2023-05-20T08:30:14;21.60;33.80
67557;DHT22;54387;53.526;49.300;2023-05-20T08:32:41;21.60;34.10
67557;DHT22;54387;53.526;49.300;2023-05-20T08:35:07;21.60;34.30
67557;DHT22;54387;53.526;49.300;2023-05-20T08:37:34;21.50;34.20
67557;DHT22;54387;53.526;49.300;2023-05-20T08:40:00;21.60;34.40
67557;DHT22;54387;53.526;49.300;2023-05-20T08:42:26;21.70;34.20
67557;DHT22;54387;53.526;49.300;2023-05-20T08:44:53;21.70;34.50
67557;DHT22;54387;53.526;49.300;2023-05-20T08:47:20;21.80;34.30
67557;DHT22;54387;53.526;49.300;2023-05-20T08:49:50;22.00;34.30
67557;DHT22;54387;53.526;49.300;2023-05-20T08:52:19;22.10;34.10
67557;DHT22;54387;53.526;49.300;2023-05-20T08:54:48;22.20;34.10
67557;DHT22;54387;53.526;49.300;2023-05-20T08:57:14;22.50;33.80
67557;DHT22;54387;53.526;49.300;2023-05-20T08:59:42;22.70;33.20
67557;DHT22;54387;53.526;49.300;2023-05-20T09:02:09;22.90;32.50
67557;DHT22;54387;53.526;49.300;2023-05-20T09:04:38;22.80;32.10
67557;DHT22;54387;53.526;49.300;2023-05-20T09:07:04;22.70;32.10
67557;DHT22;54387;53.526;49.300;2023-05-20T09:09:33;22.80;32.30
67557;DHT22;54387;53.526;49.300;2023-05-20T09:12:01;23.10;32.10
67557;DHT22;54387;53.526;49.300;2023-05-20T09:14:31;23.40;31.50
67557;DHT22;54387;53.526;49.300;2023-05-20T09:16:58;23.60;31.00
67557;DHT22;54387;53.526;49.300;2023-05-20T09:19:25;23.60;31.20
67557;DHT22;54387;53.526;49.300;2023-05-20T09:21:52;23.60;31.10
67557;DHT22;54387;53.526;49.300;2023-05-20T09:24:23;23.60;31.00
67557;DHT22;54387;53.526;49.300;2023-05-20T09:26:50;23.70;31.00
67557;DHT22;54387;53.526;49.300;2023-05-20T09:29:17;23.80;30.70
67557;DHT22;54387;53.526;49.300;2023-05-20T09:31:47;23.80;30.60
67557;DHT22;54387;53.526;49.300;2023-05-20T09:34:14;23.70;30.60
67557;DHT22;54387;53.526;49.300;2023-05-20T09:36:42;23.70;30.90
67557;DHT22;54387;53.526;49.300;2023-05-20T09:39:19;23.80;31.30
67557;DHT22;54387;53.526;49.300;2023-05-20T09:42:00;24.30;31.70
67557;DHT22;54387;53.526;49.300;2023-05-20T09:44:28;25.50;31.20
67557;DHT22;54387;53.526;49.300;2023-05-20T09:46:56;26.50;29.80
67557;DHT22;54387;53.526;49.300;2023-05-20T09:49:22;26.90;29.40
67557;DHT22;54387;53.526;49.300;2023-05-20T09:51:52;27.20;29.00
67557;DHT22;54387;53.526;49.300;2023-05-20T09:54:18;27.20;28.70
67557;DHT22;54387;53.526;49.300;2023-05-20T09:56:46;27.30;28.70
67557;DHT22;54387;53.526;49.300;2023-05-20T09:59:14;28.40;28.60
67557;DHT22;54387;53.526;49.300;2023-05-20T10:01:43;30.00;27.50
67557;DHT22;54387;53.526;49.300;2023-05-20T10:04:12;32.00;26.30
67557;DHT22;54387;53.526;49.300;2023-05-20T10:06:55;32.90;25.00
67557;DHT22;54387;53.526;49.300;2023-05-20T10:09:35;33.20;24.50
67557;DHT22;54387;53.526;49.300;2023-05-20T10:20:05;31.60;24.50
67557;DHT22;54387;53.526;49.300;2023-05-20T10:22:31;32.40;24.50
67557;DHT22;54387;53.526;49.300;2023-05-20T10:24:59;33.70;23.80
67557;DHT22;54387;53.526;49.300;2023-05-20T10:27:26;34.50;23.20
67557;DHT22;54387;53.526;49.300;2023-05-20T10:29:56;35.00;23.10
67557;DHT22;54387;53.526;49.300;2023-05-20T10:32:32;35.60;22.40
67557;DHT22;54387;53.526;49.300;2023-05-20T10:35:08;35.10;22.30
67557;DHT22;54387;53.526;49.300;2023-05-20T10:37:45;33.70;22.40
67557;DHT22;54387;53.526;49.300;2023-05-20T10:40:14;32.10;23.00
67557;DHT22;54387;53.526;49.300;2023-05-20T10:42:41;30.80;24.10
67557;DHT22;54387;53.526;49.300;2023-05-20T10:45:08;29.60;24.70
67557;DHT22;54387;53.526;49.300;2023-05-20T10:47:35;28.60;25.40
67557;DHT22;54387;53.526;49.300;2023-05-20T10:50:02;27.90;26.20
67557;DHT22;54387;53.526;49.300;2023-05-20T10:52:37;27.20;26.70
67557;DHT22;54387;53.526;49.300;2023-05-20T10:55:03;26.90;27.40
67557;DHT22;54387;53.526;49.300;2023-05-20T10:57:30;26.70;27.40
67557;DHT22;54387;53.526;49.300;2023-05-20T10:59:57;26.70;27.80
67557;DHT22;54387;53.526;49.300;2023-05-20T11:02:25;26.90;28.00
67557;DHT22;54387;53.526;49.300;2023-05-20T11:04:55;27.10;28.00
67557;DHT22;54387;53.526;49.300;2023-05-20T11:07:29;27.40;27.90
67557;DHT22;54387;53.526;49.300;2023-05-20T11:09:56;28.00;27.50
67557;DHT22;54387;53.526;49.300;2023-05-20T11:12:25;28.30;27.20
67557;DHT22;54387;53.526;49.300;2023-05-20T11:14:52;28.60;27.10
67557;DHT22;54387;53.526;49.300;2023-05-20T11:17:19;29.10;26.70
67557;DHT22;54387;53.526;49.300;2023-05-20T11:19:46;29.90;26.60
67557;DHT22;54387;53.526;49.300;2023-05-20T11:22:13;30.30;26.20
67557;DHT22;54387;53.526;49.300;2023-05-20T11:24:39;30.40;25.80
67557;DHT22;54387;53.526;49.300;2023-05-20T11:27:06;30.10;25.70
67557;DHT22;54387;53.526;49.300;2023-05-20T11:29:33;29.80;25.90
67557;DHT22;54387;53.526;49.300;2023-05-20T11:31:59;29.40;26.30
67557;DHT22;54387;53.526;49.300;2023-05-20T11:34:33;29.10;26.60
67557;DHT22;54387;53.526;49.300;2023-05-20T11:36:59;28.60;27.00
67557;DHT22;54387;53.526;49.300;2023-05-20T11:39:29;28.20;27.20
67557;DHT22;54387;53.526;49.300;2023-05-20T11:41:56;27.80;27.40
67557;DHT22;54387;53.526;49.300;2023-05-20T11:44:22;27.50;27.80
67557;DHT22;54387;53.526;49.300;2023-05-20T11:46:49;27.10;28.00
67557;DHT22;54387;53.526;49.300;2023-05-20T11:49:16;26.80;28.10
67557;DHT22;54387;53.526;49.300;2023-05-20T11:51:47;26.70;28.50
67557;DHT22;54387;53.526;49.300;2023-05-20T11:54:14;26.70;28.60
67557;DHT22;54387;53.526;49.300;2023-05-20T11:56:43;26.80;28.70
67557;DHT22;54387;53.526;49.300;2023-05-20T11:59:10;26.90;28.60
67557;DHT22;54387;53.526;49.300;2023-05-20T12:01:37;27.00;28.40
67557;DHT22;54387;53.526;49.300;2023-05-20T12:04:08;27.00;28.30
67557;DHT22;54387;53.526;49.300;2023-05-20T12:06:35;27.10;28.30
67557;DHT22;54387;53.526;49.300;2023-05-20T12:09:05;27.00;28.30
67557;DHT22;54387;53.526;49.300;2023-05-20T12:11:37;26.90;28.20
67557;DHT22;54387;53.526;49.300;2023-05-20T12:14:07;26.70;28.50
67557;DHT22;54387;53.526;49.300;2023-05-20T12:16:35;26.30;28.60
67557;DHT22;54387;53.526;49.300;2023-05-20T12:19:01;26.10;29.00
67557;DHT22;54387;53.526;49.300;2023-05-20T12:21:28;26.10;29.20
67557;DHT22;54387;53.526;49.300;2023-05-20T12:23:55;26.30;28.90
67557;DHT22;54387;53.526;49.300;2023-05-20T12:26:25;26.80;28.80
67557;DHT22;54387;53.526;49.300;2023-05-20T12:28:53;27.50;28.40
67557;DHT22;54387;53.526;49.300;2023-05-20T12:31:19;28.70;27.80
67557;DHT22;54387;53.526;49.300;2023-05-20T12:33:46;29.60;27.00
67557;DHT22;54387;53.526;49.300;2023-05-20T12:36:13;29.70;26.10
67557;DHT22;54387;53.526;49.300;2023-05-20T12:38:39;29.50;26.10
67557;DHT22;54387;53.526;49.300;2023-05-20T12:41:06;29.20;26.30
67557;DHT22;54387;53.526;49.300;2023-05-20T12:43:32;29.00;27.40
67557;DHT22;54387;53.526;49.300;2023-05-20T12:46:00;28.90;26.80
67557;DHT22;54387;53.526;49.300;2023-05-20T12:48:26;28.90;26.90
67557;DHT22;54387;53.526;49.300;2023-05-20T12:50:52;28.90;26.90
67557;DHT22;54387;53.526;49.300;2023-05-20T12:53:18;28.90;26.70
67557;DHT22;54387;53.526;49.300;2023-05-20T12:55:45;28.70;26.50
67557;DHT22;54387;53.526;49.300;2023-05-20T12:58:11;28.70;26.80
67557;DHT22;54387;53.526;49.300;2023-05-20T13:00:37;28.60;26.80
67557;DHT22;54387;53.526;49.300;2023-05-20T13:03:03;28.40;26.90
67557;DHT22;54387;53.526;49.300;2023-05-20T13:05:30;28.10;27.30
67557;DHT22;54387;53.526;49.300;2023-05-20T13:07:56;27.60;27.30
67557;DHT22;54387;53.526;49.300;2023-05-20T13:10:22;27.30;28.40
67557;DHT22;54387;53.526;49.300;2023-05-20T13:12:48;27.10;27.80
67557;DHT22;54387;53.526;49.300;2023-05-20T13:15:14;27.00;27.90
67557;DHT22;54387;53.526;49.300;2023-05-20T13:17:41;26.90;28.20
67557;DHT22;54387;53.526;49.300;2023-05-20T13:20:08;27.10;28.30
67557;DHT22;54387;53.526;49.300;2023-05-20T13:22:34;27.20;29.20
67557;DHT22;54387;53.526;49.300;2023-05-20T13:25:08;27.30;28.20
67557;DHT22;54387;53.526;49.300;2023-05-20T13:27:34;27.20;28.10
67557;DHT22;54387;53.526;49.300;2023-05-20T13:30:01;27.30;28.30
67557;DHT22;54387;53.526;49.300;2023-05-20T13:32:27;27.30;28.40
67557;DHT22;54387;53.526;49.300;2023-05-20T13:34:54;27.10;28.30
67557;DHT22;54387;53.526;49.300;2023-05-20T13:37:21;27.10;28.50
67557;DHT22;54387;53.526;49.300;2023-05-20T13:39:47;26.90;28.60
67557;DHT22;54387;53.526;49.300;2023-05-20T13:42:14;26.80;28.60
67557;DHT22;54387;53.526;49.300;2023-05-20T13:44:40;26.70;28.60
67557;DHT22;54387;53.526;49.300;2023-05-20T13:47:06;26.60;28.80
67557;DHT22;54387;53.526;49.300;2023-05-20T13:49:32;26.40;28.90
67557;DHT22;54387;53.526;49.300;2023-05-20T13:51:59;26.40;29.10
67557;DHT22;54387;53.526;49.300;2023-05-20T13:54:25;26.40;29.00
67557;DHT22;54387;53.526;49.300;2023-05-20T13:56:52;26.30;29.10
67557;DHT22;54387;53.526;49.300;2023-05-20T13:59:18;26.30;29.40
67557;DHT22;54387;53.526;49.300;2023-05-20T14:01:44;26.40;29.40
67557;DHT22;54387;53.526;49.300;2023-05-20T14:04:11;27.00;29.20
67557;DHT22;54387;53.526;49.300;2023-05-20T14:06:38;27.90;28.40
67557;DHT22;54387;53.526;49.300;2023-05-20T14:09:05;28.20;27.80
67557;DHT22;54387;53.526;49.300;2023-05-20T14:11:31;28.00;27.60
67557;DHT22;54387;53.526;49.300;2023-05-20T14:13:57;27.80;27.80
67557;DHT22;54387;53.526;49.300;2023-05-20T14:16:24;27.60;28.10
67557;DHT22;54387;53.526;49.300;2023-05-20T14:18:50;27.30;28.10
67557;DHT22;54387;53.526;49.300;2023-05-20T14:21:16;26.90;28.30
67557;DHT22;54387;53.526;49.300;2023-05-20T14:23:42;26.60;28.50
67557;DHT22;54387;53.526;49.300;2023-05-20T14:26:10;26.30;28.80
67557;DHT22;54387;53.526;49.300;2023-05-20T14:28:36;26.00;29.10
67557;DHT22;54387;53.526;49.300;2023-05-20T14:31:03;26.00;29.60
67557;DHT22;54387;53.526;49.300;2023-05-20T14:33:29;25.80;29.70
67557;DHT22;54387;53.526;49.300;2023-05-20T14:35:55;25.70;29.90
67557;DHT22;54387;53.526;49.300;2023-05-20T14:38:22;25.70;30.00
67557;DHT22;54387;53.526;49.300;2023-05-20T14:40:48;25.60;30.00
67557;DHT22;54387;53.526;49.300;2023-05-20T14:43:14;25.40;30.10
67557;DHT22;54387;53.526;49.300;2023-05-20T14:45:41;25.20;30.20
67557;DHT22;54387;53.526;49.300;2023-05-20T14:48:07;24.90;30.70
67557;DHT22;54387;53.526;49.300;2023-05-20T14:50:33;24.70;31.30
67557;DHT22;54387;53.526;49.300;2023-05-20T14:52:59;24.50;31.90
67557;DHT22;54387;53.526;49.300;2023-05-20T14:55:25;24.20;32.10
67557;DHT22;54387;53.526;49.300;2023-05-20T14:57:52;23.90;32.60
67557;DHT22;54387;53.526;49.300;2023-05-20T15:00:18;23.70;33.20
67557;DHT22;54387;53.526;49.300;2023-05-20T15:02:44;23.50;33.50
67557;DHT22;54387;53.526;49.300;2023-05-20T15:05:10;23.40;33.70
67557;DHT22;54387;53.526;49.300;2023-05-20T15:07:37;23.30;34.00
67557;DHT22;54387;53.526;49.300;2023-05-20T15:10:03;23.20;34.10
67557;DHT22;54387;53.526;49.300;2023-05-20T15:12:30;23.00;34.70
67557;DHT22;54387;53.526;49.300;2023-05-20T15:14:56;22.70;35.20
67557;DHT22;54387;53.526;49.300;2023-05-20T15:17:22;22.60;35.60
67557;DHT22;54387;53.526;49.300;2023-05-20T15:19:48;22.40;35.70
67557;DHT22;54387;53.526;49.300;2023-05-20T15:22:14;22.20;36.10